Time;durP1;ratioP1;P1;durP2;ratioP2;P2;SDS_P1;SDS_P2;PMS_P1;PMS_P2;Temp;Humidity;BMP_temperature;BMP_pressure;BME280_temperature;BME280_humidity;BME280_pressure;Samples;Min_cycle;Max_cycle;Signal;HPM_P1;HPM_P2
2021/11/12 00:04:35;;;;;;;;;79.75;55.50;;;;;12.56;100.00;101748.94;5123124;27;45392;-83
2021/11/12 00:11:53;;;;;;;;;81.00;59.25;;;;;12.52;100.00;101750.03;5104611;27;45334;-83
2021/11/12 00:12:44;;;;;;;;;77.75;55.50;;;;;12.54;100.00;101761.41;5126234;27;45384;-83
2021/11/12 00:15:11;;;;;;;;;71.50;52.00;;;;;12.47;100.00;101752.13;5114066;27;45455;-83
2021/11/12 00:17:38;;;;;;;;;78.50;52.00;;;;;12.48;100.00;101753.81;5130890;27;45435;-83
2021/11/12 00:20:04;;;;;;;;;76.25;54.25;;;;;12.37;100.00;101759.75;5124734;27;45418;-83
2021/11/12 00:22:30;;;;;;;;;70.25;50.50;;;;;12.30;100.00;101755.75;5122625;27;45397;-82
2021/11/12 00:24:58;;;;;;;;;69.00;48.75;;;;;12.27;100.00;101755.94;5133457;27;45332;-83
2021/11/12 00:27:24;;;;;;;;;69.75;53.50;;;;;12.29;100.00;101749.59;5136543;27;45459;-82
2021/11/12 00:32:25;;;;;;;;;67.50;50.25;;;;;12.38;100.00;101748.22;5134755;27;45266;-83
2021/11/12 00:40:19;;;;;;;;;69.50;49.75;;;;;12.30;100.00;101735.41;5122436;27;46144;-82
2021/11/12 00:45:27;;;;;;;;;65.25;49.50;;;;;12.21;100.00;101737.75;5131470;27;45459;-82
2021/11/12 00:47:58;;;;;;;;;71.75;50.25;;;;;12.19;100.00;101734.34;5122293;27;45516;-82
2021/11/12 00:55:22;;;;;;;;;66.50;46.00;;;;;12.41;100.00;101741.88;5124731;27;45354;-81
2021/11/12 00:57:48;;;;;;;;;65.25;48.25;;;;;12.37;100.00;101733.28;5115952;27;45486;-82
2021/11/12 01:00:14;;;;;;;;;71.25;52.00;;;;;12.26;100.00;101733.03;5121687;27;45242;-82
2021/11/12 01:02:40;;;;;;;;;63.75;48.00;;;;;12.16;100.00;101740.69;5102201;27;46017;-82
2021/11/12 01:05:07;;;;;;;;;70.00;49.50;;;;;12.13;100.00;101742.63;5121953;27;45376;-82
2021/11/12 01:07:33;;;;;;;;;67.25;45.00;;;;;12.14;100.00;101739.06;5102664;27;45481;-82
2021/11/12 01:09:59;;;;;;;;;65.00;48.50;;;;;12.20;100.00;101744.84;5121439;27;45454;-82
2021/11/12 01:12:25;;;;;;;;;66.25;46.50;;;;;12.24;100.00;101735.78;5122133;27;45915;-82
2021/11/12 01:14:51;;;;;;;;;69.75;48.50;;;;;12.23;100.00;101727.91;5121490;27;45422;-82
2021/11/12 01:17:16;;;;;;;;;62.75;48.50;;;;;12.14;100.00;101717.88;5121812;27;45424;-82
2021/11/12 01:19:42;;;;;;;;;57.75;44.00;;;;;12.13;100.00;101719.66;5121047;27;45804;-82
2021/11/12 01:22:07;;;;;;;;;66.00;50.75;;;;;12.09;100.00;101712.00;5122090;27;45509;-82
2021/11/12 01:24:33;;;;;;;;;69.00;49.25;;;;;12.08;100.00;101716.44;5122944;27;45505;-81
2021/11/12 01:26:58;;;;;;;;;70.75;50.75;;;;;11.98;100.00;101717.91;5090575;27;45306;-82
2021/11/12 01:29:24;;;;;;;;;58.25;42.50;;;;;11.92;100.00;101719.13;5117817;27;46083;-82
2021/11/12 01:31:49;;;;;;;;;70.00;48.75;;;;;11.96;100.00;101715.34;5124552;27;45605;-82
2021/11/12 01:34:15;;;;;;;;;66.25;46.00;;;;;11.84;100.00;101708.09;5102800;27;45443;-82
2021/11/12 01:36:44;;;;;;;;;64.25;47.25;;;;;11.86;100.00;101711.53;5121917;27;45242;-82
2021/11/12 01:39:21;;;;;;;;;60.25;46.25;;;;;11.85;100.00;101709.81;5115067;27;46393;-82
2021/11/12 01:41:50;;;;;;;;;63.00;42.50;;;;;11.79;100.00;101706.69;5121381;27;45735;-81
2021/11/12 01:44:27;;;;;;;;;56.75;42.50;;;;;11.86;100.00;101716.81;5116737;27;45531;-82
2021/11/12 01:47:10;;;;;;;;;60.50;44.75;;;;;11.89;100.00;101705.22;5104150;27;45413;-82
2021/11/12 01:49:46;;;;;;;;;63.75;48.00;;;;;11.85;100.00;101704.53;5111511;27;45319;-82
2021/11/12 01:52:23;;;;;;;;;65.00;45.25;;;;;11.87;100.00;101705.28;5121135;27;45720;-82
2021/11/12 01:57:49;;;;;;;;;61.25;41.25;;;;;11.97;100.00;101709.13;5120746;27;45451;-82
2021/11/12 02:00:19;;;;;;;;;63.50;45.00;;;;;12.10;100.00;101697.81;5120449;27;45458;-81
2021/11/12 02:02:45;;;;;;;;;69.50;46.00;;;;;11.99;100.00;101693.16;5120667;27;45861;-82
2021/11/12 02:05:11;;;;;;;;;66.00;46.00;;;;;12.09;100.00;101686.38;5124907;27;45471;-82
2021/11/12 02:07:37;;;;;;;;;60.50;45.00;;;;;12.09;100.00;101685.53;5124126;27;45554;-83
2021/11/12 02:10:17;;;;;;;;;68.25;47.00;;;;;12.13;100.00;101684.38;5116684;27;45395;-82
2021/11/12 02:12:57;;;;;;;;;72.00;48.50;;;;;12.08;100.00;101681.16;5120606;27;45821;-82
2021/11/12 02:15:22;;;;;;;;;67.00;46.00;;;;;12.06;100.00;101668.03;5119431;27;45672;-82
2021/11/12 02:17:56;;;;;;;;;59.00;42.75;;;;;12.03;100.00;101673.47;5120801;27;45420;-83
2021/11/12 02:20:37;;;;;;;;;65.50;45.75;;;;;11.94;100.00;101674.03;5120592;27;46098;-83
2021/11/12 02:23:04;;;;;;;;;54.75;42.00;;;;;11.95;100.00;101662.50;5120461;27;45475;-83
2021/11/12 02:25:37;;;;;;;;;58.50;44.50;;;;;11.96;100.00;101665.06;5101834;27;45627;-83
2021/11/12 02:28:08;;;;;;;;;61.50;46.00;;;;;11.98;100.00;101665.81;5119469;27;45217;-83
2021/11/12 02:30:34;;;;;;;;;64.25;45.75;;;;;11.97;100.00;101660.63;5120570;27;45320;-83
2021/11/12 02:33:07;;;;;;;;;64.75;48.00;;;;;12.09;100.00;101661.69;5120608;27;45243;-83
2021/11/12 02:35:36;;;;;;;;;65.50;46.00;;;;;11.98;100.00;101670.28;5122143;27;45308;-83
2021/11/12 02:38:04;;;;;;;;;48.50;39.00;;;;;11.88;100.00;101663.81;5120936;27;45436;-83
2021/11/12 02:40:33;;;;;;;;;60.25;44.00;;;;;11.88;100.00;101663.81;5123668;27;45432;-83
2021/11/12 02:42:59;;;;;;;;;63.50;44.50;;;;;11.83;100.00;101653.50;5107137;27;45709;-83
2021/11/12 02:45:25;;;;;;;;;53.25;42.00;;;;;11.82;100.00;101659.72;5122228;27;45296;-83
2021/11/12 02:47:51;;;;;;;;;59.50;46.00;;;;;11.88;100.00;101655.88;5120079;27;45412;-82
2021/11/12 02:50:19;;;;;;;;;60.00;45.50;;;;;11.94;100.00;101660.78;5118897;27;45984;-81
2021/11/12 02:52:48;;;;;;;;;63.25;45.50;;;;;12.01;100.00;101663.94;5133980;27;45863;-82
2021/11/12 02:55:15;;;;;;;;;60.75;45.25;;;;;11.96;100.00;101657.13;5119717;27;45392;-82
2021/11/12 02:57:42;;;;;;;;;64.00;46.25;;;;;12.00;100.00;101663.09;5120182;27;45246;-82
2021/11/12 03:00:09;;;;;;;;;63.75;45.00;;;;;11.92;100.00;101660.06;5120263;27;45320;-82
2021/11/12 03:02:36;;;;;;;;;63.25;42.25;;;;;11.81;100.00;101657.16;5119338;27;45536;-82
2021/11/12 03:05:01;;;;;;;;;64.25;44.50;;;;;11.76;100.00;101653.91;5120060;27;45432;-82
2021/11/12 03:07:27;;;;;;;;;60.50;41.75;;;;;11.70;100.00;101660.41;5120214;27;45343;-82
2021/11/12 03:09:54;;;;;;;;;65.25;45.75;;;;;11.79;100.00;101669.63;5115234;27;45582;-82
2021/11/12 03:12:21;;;;;;;;;58.75;44.00;;;;;11.71;100.00;101661.25;5119895;27;45519;-82
2021/11/12 03:14:47;;;;;;;;;54.00;42.00;;;;;11.52;100.00;101648.22;5120422;27;45341;-82
2021/11/12 03:17:14;;;;;;;;;62.00;43.50;;;;;11.44;100.00;101653.09;5123328;27;45255;-82
2021/11/12 03:19:39;;;;;;;;;60.50;45.50;;;;;11.23;100.00;101648.06;5123291;27;45384;-82
2021/11/12 03:22:09;;;;;;;;;67.25;44.25;;;;;11.38;100.00;101658.75;5119969;27;45483;-82
2021/11/12 03:24:40;;;;;;;;;66.25;44.50;;;;;11.43;100.00;101652.25;5123919;27;45213;-82
2021/11/12 03:27:23;;;;;;;;;68.50;42.25;;;;;11.52;100.00;101657.00;5124147;27;45493;-81
2021/11/12 04:02:52;;;;;;;;;53.75;40.25;;;;;11.37;100.00;101634.09;5122080;27;45503;-82
2021/11/12 05:10:48;;;;;;;;;46.25;32.50;;;;;10.65;100.00;101543.91;5122524;27;45782;-83
2021/11/12 05:51:29;;;;;;;;;39.00;34.00;;;;;10.65;100.00;101510.38;5121430;27;45483;-83
2021/11/12 05:56:42;;;;;;;;;34.25;27.50;;;;;10.64;100.00;101507.84;5112613;27;45580;-82
2021/11/12 05:59:10;;;;;;;;;35.50;29.75;;;;;10.62;100.00;101500.00;5121367;27;45534;-82
2021/11/12 06:01:36;;;;;;;;;36.25;30.00;;;;;10.64;100.00;101500.78;5120379;27;46454;-82
2021/11/12 06:04:04;;;;;;;;;45.00;28.75;;;;;10.63;100.00;101495.59;5120483;27;45284;-82
2021/11/12 06:06:31;;;;;;;;;34.75;24.75;;;;;10.67;100.00;101499.75;5104586;27;45779;-82
2021/11/12 06:08:57;;;;;;;;;32.50;24.75;;;;;10.64;100.00;101500.78;5122951;27;45545;-82
2021/11/12 06:11:23;;;;;;;;;34.75;26.00;;;;;10.72;100.00;101503.00;5117489;27;47312;-82
2021/11/12 06:13:49;;;;;;;;;30.00;22.25;;;;;10.63;100.00;101493.81;5120530;27;45892;-83
2021/11/12 06:16:15;;;;;;;;;33.25;26.50;;;;;10.63;100.00;101503.50;5110887;27;45398;-82
2021/11/12 06:18:42;;;;;;;;;39.00;26.75;;;;;10.68;100.00;101491.75;5115971;27;45545;-83
2021/11/12 06:21:09;;;;;;;;;32.50;26.00;;;;;10.75;100.00;101489.59;5120404;27;45409;-82
2021/11/12 06:23:35;;;;;;;;;37.25;20.25;;;;;10.70;100.00;101491.66;5120567;27;45990;-83
2021/11/12 06:26:01;;;;;;;;;33.75;20.75;;;;;10.53;100.00;101491.75;5095670;27;45440;-83
2021/11/12 06:28:26;;;;;;;;;30.25;22.50;;;;;10.50;100.00;101483.06;5101904;27;45772;-83
2021/11/12 06:30:51;;;;;;;;;18.75;17.00;;;;;10.60;100.00;101486.03;5101933;27;48330;-84
2021/11/12 06:33:17;;;;;;;;;25.50;21.00;;;;;10.45;100.00;101492.19;5120031;27;45377;-87
2021/11/12 06:35:43;;;;;;;;;34.00;21.00;;;;;10.49;100.00;101491.91;5116472;27;45933;-82
2021/11/12 06:38:10;;;;;;;;;29.00;20.00;;;;;10.44;100.00;101488.69;5115282;27;45313;-88
2021/11/12 06:40:36;;;;;;;;;25.00;18.75;;;;;10.41;100.00;101491.47;5119708;27;45908;-85
2021/11/12 06:50:38;;;;;;;;;33.75;19.75;;;;;10.67;100.00;101497.09;5122596;27;45683;-85
2021/11/12 06:53:04;;;;;;;;;22.50;17.25;;;;;10.61;100.00;101495.66;5121598;27;45827;-86
2021/11/12 06:55:30;;;;;;;;;26.50;21.75;;;;;10.52;100.00;101485.63;5098050;27;45759;-84
2021/11/12 06:57:55;;;;;;;;;27.75;19.50;;;;;10.55;100.00;101484.59;5120484;27;45413;-85
2021/11/12 07:00:21;;;;;;;;;28.50;22.25;;;;;10.44;100.00;101477.28;5117170;27;45358;-84
2021/11/12 07:02:47;;;;;;;;;24.75;18.25;;;;;10.48;100.00;101490.19;5119955;27;45501;-84
2021/11/12 07:05:15;;;;;;;;;23.75;19.25;;;;;10.57;100.00;101491.47;5123065;27;45447;-84
2021/11/12 07:07:41;;;;;;;;;21.50;19.00;;;;;10.60;100.00;101482.53;5115350;27;45396;-84
2021/11/12 07:10:08;;;;;;;;;31.75;20.75;;;;;10.62;100.00;101486.81;5123067;27;45336;-85
2021/11/12 07:12:34;;;;;;;;;33.50;26.25;;;;;10.64;100.00;101487.59;5126137;27;45595;-84
2021/11/12 07:15:00;;;;;;;;;30.25;19.25;;;;;10.59;100.00;101488.75;5104603;27;45472;-84
2021/11/12 07:17:25;;;;;;;;;18.00;17.50;;;;;10.48;100.00;101495.47;5124114;27;45434;-85
2021/11/12 07:19:51;;;;;;;;;21.75;17.75;;;;;10.55;100.00;101497.81;5123549;27;46307;-84
2021/11/12 07:22:17;;;;;;;;;27.50;20.75;;;;;10.58;100.00;101497.63;5105229;27;45363;-83
2021/11/12 07:24:43;;;;;;;;;27.00;19.75;;;;;10.57;100.00;101488.84;5125272;27;45333;-82
2021/11/12 07:27:09;;;;;;;;;28.00;18.25;;;;;10.57;100.00;101490.63;5126651;27;45494;-83
2021/11/12 07:29:36;;;;;;;;;25.25;20.75;;;;;10.60;100.00;101482.53;5121589;27;45408;-81
2021/11/12 07:32:04;;;;;;;;;29.75;22.25;;;;;10.65;100.00;101483.97;5123607;27;45699;-84
2021/11/12 07:34:31;;;;;;;;;31.25;24.25;;;;;10.59;100.00;101472.91;5104426;27;45352;-83
2021/11/12 07:37:02;;;;;;;;;37.25;24.50;;;;;10.57;100.00;101472.13;5122704;27;45515;-85
2021/11/12 07:47:15;;;;;;;;;32.75;22.75;;;;;10.90;100.00;101472.91;5123232;27;45301;-82
2021/11/12 07:49:47;;;;;;;;;36.00;20.00;;;;;10.94;100.00;101461.19;5123018;27;45408;-82
2021/11/12 07:52:15;;;;;;;;;25.25;22.00;;;;;10.91;100.00;101448.19;5123556;27;45784;-81
2021/11/12 07:54:41;;;;;;;;;31.75;22.00;;;;;10.84;100.00;101452.09;5137447;27;45809;-81
2021/11/12 07:57:08;;;;;;;;;33.50;25.00;;;;;10.76;100.00;101435.81;5106591;27;45638;-82
2021/11/12 07:59:34;;;;;;;;;24.00;22.00;;;;;10.86;100.00;101451.06;5105644;27;46864;-82
2021/11/12 08:02:01;;;;;;;;;22.25;20.00;;;;;10.90;100.00;101451.75;5125720;27;45756;-82
2021/11/12 08:04:27;;;;;;;;;26.50;21.25;;;;;10.98;100.00;101446.88;5123829;27;45247;-82
2021/11/12 08:06:55;;;;;;;;;32.75;24.75;;;;;11.05;100.00;101461.44;5104395;27;45446;-83
2021/11/12 08:09:24;;;;;;;;;38.25;21.00;;;;;11.19;100.00;101485.28;5119711;27;46102;-83
2021/11/12 08:12:09;;;;;;;;;33.75;22.75;;;;;11.27;100.00;101502.50;5113440;27;45304;-84
2021/11/12 08:14:49;;;;;;;;;30.50;22.00;;;;;11.47;100.00;101502.19;5122893;27;45325;-81
2021/11/12 08:17:22;;;;;;;;;34.25;27.00;;;;;11.58;100.00;101508.50;5122705;27;45407;-82
2021/11/12 08:25:05;;;;;;;;;33.50;26.50;;;;;11.95;100.00;101477.22;5123028;27;45326;-82
2021/11/12 08:38:16;;;;;;;;;39.75;29.00;;;;;12.41;100.00;101474.34;5125251;27;45424;-83
2021/11/12 08:48:21;;;;;;;;;34.50;27.50;;;;;13.16;100.00;101479.16;5122198;27;45410;-82
2021/11/12 08:50:46;;;;;;;;;39.50;28.00;;;;;13.43;100.00;101476.44;5122120;27;45261;-82
2021/11/12 08:53:14;;;;;;;;;41.50;28.00;;;;;13.63;100.00;101475.94;5122605;27;45312;-82
2021/11/12 08:55:41;;;;;;;;;42.50;30.50;;;;;13.67;100.00;101458.84;5120080;27;45443;-82
2021/11/12 08:58:10;;;;;;;;;37.75;24.50;;;;;13.59;100.00;101455.00;5097252;27;45518;-82
2021/11/12 09:00:37;;;;;;;;;45.50;30.50;;;;;13.68;100.00;101451.72;5133696;27;45425;-82
2021/11/12 09:03:03;;;;;;;;;43.75;36.25;;;;;13.73;100.00;101455.78;5111283;27;46164;-83
2021/11/12 09:05:29;;;;;;;;;39.50;29.00;;;;;13.76;100.00;101455.53;5125881;27;45454;-82
2021/11/12 09:07:55;;;;;;;;;44.25;34.25;;;;;13.73;100.00;101457.59;5123278;27;45471;-82
2021/11/12 09:10:24;;;;;;;;;39.50;33.00;;;;;13.85;100.00;101472.63;5127769;27;46616;-82
2021/11/12 09:12:59;;;;;;;;;49.25;33.00;;;;;13.88;100.00;101461.81;5134796;27;45346;-82
2021/11/12 09:15:29;;;;;;;;;40.25;35.75;;;;;13.97;100.00;101469.13;5122801;27;45275;-82
2021/11/12 09:17:56;;;;;;;;;37.75;31.25;;;;;14.03;100.00;101471.34;5123861;27;46448;-83
2021/11/12 09:20:22;;;;;;;;;39.50;29.50;;;;;14.12;100.00;101481.31;5110129;27;47229;-82
2021/11/12 09:22:48;;;;;;;;;39.75;29.25;;;;;14.04;100.00;101474.88;5127399;27;45435;-81
2021/11/12 09:25:13;;;;;;;;;50.00;34.00;;;;;14.07;100.00;101467.53;5125860;27;45384;-83
2021/11/12 09:27:39;;;;;;;;;35.25;31.75;;;;;14.07;100.00;101450.75;5122815;27;45460;-83
2021/11/12 09:30:07;;;;;;;;;50.50;34.50;;;;;14.20;100.00;101451.59;5119169;27;46580;-82
2021/11/12 09:32:33;;;;;;;;;44.25;34.25;;;;;14.18;100.00;101450.84;5123270;27;46002;-82
2021/11/12 09:34:58;;;;;;;;;47.00;34.75;;;;;14.32;100.00;101447.19;5129030;27;45416;-82
2021/11/12 09:37:24;;;;;;;;;33.75;26.25;;;;;14.16;100.00;101442.97;5121515;27;45378;-82
2021/11/12 09:39:55;;;;;;;;;49.50;37.00;;;;;14.28;100.00;101448.38;5121589;27;45994;-82
2021/11/12 09:42:26;;;;;;;;;39.75;33.00;;;;;14.37;100.00;101442.41;5121473;27;45226;-82
2021/11/12 09:44:53;;;;;;;;;41.25;36.00;;;;;14.39;100.00;101448.47;5102901;27;45381;-82
2021/11/12 09:47:25;;;;;;;;;47.50;35.75;;;;;14.44;100.00;101449.00;5124471;27;45481;-82
2021/11/12 09:50:00;;;;;;;;;46.75;34.25;;;;;14.57;100.00;101455.97;5123717;27;45420;-82
2021/11/12 09:52:28;;;;;;;;;52.00;37.00;;;;;14.73;100.00;101447.72;5121577;27;45317;-82
2021/11/12 09:54:55;;;;;;;;;45.00;36.00;;;;;14.82;100.00;101431.09;5121109;27;45579;-82
2021/11/12 09:57:22;;;;;;;;;46.75;36.00;;;;;15.00;100.00;101418.22;5121204;27;45329;-82
2021/11/12 09:59:50;;;;;;;;;52.25;37.50;;;;;15.11;100.00;101407.63;5121203;27;45482;-82
2021/11/12 10:02:17;;;;;;;;;50.50;38.75;;;;;15.20;100.00;101398.97;5120956;27;45393;-82
2021/11/12 10:04:45;;;;;;;;;47.75;34.75;;;;;15.11;99.35;101389.03;5121379;27;45408;-82
2021/11/12 10:07:12;;;;;;;;;43.50;34.75;;;;;15.34;100.00;101384.56;5120745;27;45432;-82
2021/11/12 10:09:39;;;;;;;;;55.00;38.75;;;;;15.61;100.00;101386.94;5116949;27;45386;-82
2021/11/12 10:12:09;;;;;;;;;51.50;35.25;;;;;15.83;97.86;101391.44;5115092;27;45486;-82
2021/11/12 10:14:41;;;;;;;;;52.75;38.00;;;;;15.78;98.13;101388.28;5121050;27;45272;-82
2021/11/12 10:17:09;;;;;;;;;51.75;38.00;;;;;15.77;96.93;101383.91;5120712;27;45338;-82
2021/11/12 10:19:47;;;;;;;;;51.50;37.50;;;;;16.03;96.57;101393.34;5121059;27;45396;-82
2021/11/12 10:22:16;;;;;;;;;52.75;38.50;;;;;16.26;94.98;101397.69;5105097;27;45201;-82
2021/11/12 10:24:43;;;;;;;;;46.50;37.00;;;;;16.50;95.77;101394.81;5124596;27;45277;-82
2021/11/12 10:27:12;;;;;;;;;49.25;38.25;;;;;16.73;91.53;101390.31;5102409;27;45468;-82
2021/11/12 10:29:46;;;;;;;;;50.00;38.00;;;;;16.77;90.79;101378.38;5120790;27;45576;-82
2021/11/12 10:32:28;;;;;;;;;49.00;35.00;;;;;16.97;94.55;101379.38;5121467;27;45749;-82
2021/11/12 10:35:01;;;;;;;;;48.25;35.00;;;;;17.01;89.83;101379.03;5119779;27;45435;-82
2021/11/12 10:37:30;;;;;;;;;50.25;36.75;;;;;16.91;90.02;101370.09;5116205;27;45344;-82
2021/11/12 10:40:05;;;;;;;;;41.00;33.50;;;;;16.93;88.80;101362.81;5122715;27;47885;-81
2021/11/12 10:42:36;;;;;;;;;44.00;35.25;;;;;16.88;90.25;101382.84;5119434;27;45839;-82
2021/11/12 10:45:07;;;;;;;;;54.00;36.75;;;;;17.08;91.00;101393.53;5121635;27;45677;-82
2021/11/12 10:47:34;;;;;;;;;47.25;36.50;;;;;17.11;89.75;101384.44;5123713;27;45246;-82
2021/11/12 10:50:05;;;;;;;;;52.25;36.00;;;;;16.92;89.49;101381.63;5105705;27;47357;-82
2021/11/12 10:52:32;;;;;;;;;37.50;28.00;;;;;16.86;89.44;101369.63;5124338;27;45558;-82
2021/11/12 10:55:06;;;;;;;;;49.50;39.25;;;;;16.86;88.54;101358.09;5123936;27;45520;-82
2021/11/12 10:57:33;;;;;;;;;47.50;34.25;;;;;16.75;88.85;101341.16;5124777;27;45258;-82
2021/11/12 11:00:28;;;;;;;;;46.50;36.75;;;;;16.97;90.48;101321.53;5108565;27;46202;-82
2021/11/12 11:02:59;;;;;;;;;49.75;37.50;;;;;17.10;89.45;101314.19;5093138;27;45774;-82
2021/11/12 11:05:30;;;;;;;;;47.75;38.00;;;;;17.16;88.92;101318.16;5103611;27;45300;-82
2021/11/12 11:08:02;;;;;;;;;46.25;34.00;;;;;17.23;87.75;101303.28;5103273;27;45524;-82
2021/11/12 11:10:47;;;;;;;;;46.25;35.25;;;;;17.21;88.63;101307.91;5094651;27;48324;-82
2021/11/12 11:13:15;;;;;;;;;47.25;38.00;;;;;17.41;89.75;101306.19;5103031;27;45343;-82
2021/11/12 11:15:45;;;;;;;;;43.00;35.75;;;;;17.48;85.61;101292.16;5101894;27;45378;-82
2021/11/12 11:20:48;;;;;;;;;45.00;34.75;;;;;17.61;88.22;101315.97;5103255;27;45507;-82
2021/11/12 11:23:14;;;;;;;;;47.25;37.25;;;;;17.77;87.08;101324.34;5101973;27;45291;-82
2021/11/12 11:25:49;;;;;;;;;52.25;37.50;;;;;18.09;85.54;101307.28;5103135;27;45479;-82
2021/11/12 11:28:15;;;;;;;;;42.00;33.25;;;;;18.12;82.13;101315.03;5103127;27;45398;-82
2021/11/12 11:30:41;;;;;;;;;50.75;33.50;;;;;18.26;83.72;101310.13;5101497;27;46906;-82
2021/11/12 11:33:09;;;;;;;;;43.75;36.00;;;;;18.41;80.93;101302.50;5103688;27;45396;-82
2021/11/12 11:35:35;;;;;;;;;51.50;37.00;;;;;18.45;80.57;101295.91;5102417;27;45392;-83
2021/11/12 11:38:02;;;;;;;;;45.75;35.50;;;;;18.46;80.49;101313.66;5093632;27;45282;-82
2021/11/12 11:40:28;;;;;;;;;42.75;32.50;;;;;18.40;80.04;101319.53;5102824;27;46081;-83
2021/11/12 11:42:54;;;;;;;;;46.50;36.50;;;;;18.36;78.57;101296.75;5103215;27;45230;-82
2021/11/12 11:45:19;;;;;;;;;49.75;37.00;;;;;18.30;81.75;101278.56;5100249;27;45417;-83
2021/11/12 11:47:46;;;;;;;;;47.25;36.00;;;;;18.60;79.93;101301.69;5102721;27;45331;-82
2021/11/12 11:50:29;;;;;;;;;48.00;35.25;;;;;18.74;82.70;101325.38;5102483;27;46403;-82
2021/11/12 11:53:37;;;;;;;;;48.75;35.00;;;;;18.77;80.02;101322.38;5102861;27;45652;-82
2021/11/12 11:56:29;;;;;;;;;47.50;37.75;;;;;18.96;78.70;101324.19;5094086;27;45373;-82
2021/11/12 11:58:56;;;;;;;;;52.50;37.00;;;;;19.22;78.14;101305.66;5091685;27;45446;-82
2021/11/12 12:01:22;;;;;;;;;43.75;34.50;;;;;19.26;77.26;101294.53;5102389;27;45504;-82
2021/11/12 12:04:12;;;;;;;;;54.50;37.75;;;;;19.32;76.33;101299.28;5118749;27;45793;-82
2021/11/12 12:06:38;;;;;;;;;42.00;35.00;;;;;19.30;74.78;101289.75;5123362;27;45469;-82
2021/11/12 12:09:09;;;;;;;;;49.75;37.00;;;;;19.37;77.84;101282.81;5125355;27;45348;-82
2021/11/12 12:11:49;;;;;;;;;46.25;35.00;;;;;19.65;77.62;101284.53;5108855;27;47360;-82
2021/11/12 12:14:39;;;;;;;;;50.75;39.50;;;;;19.72;77.43;101277.59;5105583;27;46149;-83
2021/11/12 12:17:14;;;;;;;;;47.75;36.75;;;;;19.87;76.09;101263.66;5122946;27;45403;-82
2021/11/12 13:25:52;;;;;;;;;51.75;39.00;;;;;19.55;81.47;101173.06;5096158;27;45433;-81
2021/11/12 13:28:34;;;;;;;;;51.50;40.00;;;;;19.59;81.86;101164.56;5121664;27;45468;-82
2021/11/12 13:31:18;;;;;;;;;51.00;40.50;;;;;19.71;82.08;101168.72;5103091;27;47333;-82
2021/11/12 13:33:52;;;;;;;;;50.00;40.50;;;;;19.71;81.50;101168.72;5121773;27;46015;-82
2021/11/12 13:36:29;;;;;;;;;53.25;41.00;;;;;19.70;82.53;101163.50;5121670;27;45338;-81
2021/11/12 13:38:55;;;;;;;;;54.50;42.25;;;;;19.57;82.42;101157.69;5100603;27;46058;-82
2021/11/12 13:41:24;;;;;;;;;53.50;39.50;;;;;19.48;83.28;101150.56;5121455;27;45478;-82
2021/11/12 13:43:50;;;;;;;;;48.25;40.25;;;;;19.42;84.17;101136.72;5102670;27;46316;-82
2021/11/12 13:46:16;;;;;;;;;53.25;42.50;;;;;19.48;84.44;101126.44;5121552;27;45324;-82
2021/11/12 13:48:53;;;;;;;;;58.50;43.75;;;;;19.56;85.28;101140.75;5121223;27;45374;-82
2021/11/12 13:51:28;;;;;;;;;52.25;42.00;;;;;19.47;85.64;101133.59;5121303;27;45299;-82
2021/11/12 13:53:54;;;;;;;;;58.25;44.25;;;;;19.51;85.93;101131.47;5121610;27;45515;-84
2021/11/12 13:56:20;;;;;;;;;53.25;42.25;;;;;19.64;86.19;101135.47;5122578;27;45309;-82
2021/11/12 13:58:46;;;;;;;;;58.50;43.75;;;;;19.75;85.69;101129.06;5121828;27;45195;-82
2021/11/12 14:01:18;;;;;;;;;51.25;41.25;;;;;19.68;86.30;101125.28;5120571;27;46022;-82
2021/11/12 14:03:44;;;;;;;;;48.25;40.50;;;;;19.73;87.13;101134.56;5120468;27;45717;-82
2021/11/12 14:06:11;;;;;;;;;51.75;41.25;;;;;19.94;87.14;101131.56;5099951;27;45520;-82
2021/11/12 14:08:45;;;;;;;;;54.50;42.75;;;;;20.10;86.64;101134.38;5100098;27;45484;-82
2021/11/12 14:11:19;;;;;;;;;56.75;43.00;;;;;20.11;86.09;101128.03;5128585;27;45507;-82
2021/11/12 14:13:46;;;;;;;;;53.75;40.50;;;;;20.10;86.07;101117.47;5117164;27;45789;-82
2021/11/12 14:16:33;;;;;;;;;52.25;40.00;;;;;20.16;85.38;101114.13;5106883;27;45374;-82
2021/11/12 14:19:34;;;;;;;;;47.75;40.25;;;;;20.09;85.49;101102.38;5095874;27;45615;-82
2021/11/12 14:22:06;;;;;;;;;52.75;41.75;;;;;20.04;86.07;101099.28;5121891;27;45955;-82
2021/11/12 14:24:49;;;;;;;;;50.75;37.75;;;;;20.10;85.61;101098.69;5124902;27;45668;-82
2021/11/12 14:28:14;;;;;;;;;50.25;39.25;;;;;20.12;86.08;101096.69;5120484;27;45490;-82
2021/11/12 14:33:14;;;;;;;;;50.00;40.75;;;;;20.11;86.56;101106.59;5131094;27;45652;-83
2021/11/12 14:38:26;;;;;;;;;54.25;42.75;;;;;20.18;86.59;101110.31;5125767;27;45349;-83
2021/11/12 14:46:39;;;;;;;;;54.00;42.75;;;;;19.93;88.01;101105.78;5132375;27;45724;-83
2021/11/12 14:49:18;;;;;;;;;51.75;40.75;;;;;20.06;88.21;101105.34;5106363;27;45323;-82
2021/11/12 14:52:29;;;;;;;;;57.75;42.50;;;;;20.08;88.64;101089.94;5095455;27;45261;-82
2021/11/12 14:54:48;;;;;;;;;52.25;40.50;;;;;20.09;88.30;101097.84;5115274;27;45977;-82
2021/11/12 14:59:52;;;;;;;;;48.50;37.25;;;;;19.83;89.42;101101.50;5123932;27;45252;-82
2021/11/12 15:02:18;;;;;;;;;56.50;41.25;;;;;19.67;90.07;101103.00;5120344;27;45529;-82
2021/11/12 15:04:45;;;;;;;;;50.25;38.50;;;;;19.62;90.67;101104.47;5106425;27;48608;-82
2021/11/12 15:07:10;;;;;;;;;50.50;39.75;;;;;19.58;91.38;101119.16;5122374;27;46074;-82
2021/11/12 15:09:37;;;;;;;;;53.50;39.75;;;;;19.45;92.34;101108.81;5101498;27;45531;-81
2021/11/12 15:12:06;;;;;;;;;47.25;38.00;;;;;19.46;92.21;101107.81;5122742;27;45341;-83
2021/11/12 15:14:47;;;;;;;;;49.75;40.00;;;;;19.43;92.95;101113.47;5123436;27;45606;-83
2021/11/12 15:17:12;;;;;;;;;54.00;42.75;;;;;19.43;93.37;101103.59;5121490;27;45412;-82
2021/11/12 15:19:41;;;;;;;;;48.75;38.00;;;;;19.40;93.24;101095.84;5124740;27;45378;-82
2021/11/12 15:27:09;;;;;;;;;57.00;43.00;;;;;19.26;94.69;101088.34;5140823;27;45170;-81
2021/11/12 15:35:12;;;;;;;;;54.50;41.00;;;;;18.96;97.98;101105.56;5117496;27;46775;-82
2021/11/12 15:42:49;;;;;;;;;50.50;38.75;;;;;18.88;98.16;101105.47;5123984;27;45360;-82
2021/11/12 15:46:01;;;;;;;;;52.25;36.50;;;;;18.84;98.82;101100.59;5105528;27;46401;-82
2021/11/12 15:48:12;;;;;;;;;53.00;38.50;;;;;18.87;98.88;101108.28;5115067;27;45306;-81
2021/11/12 15:51:14;;;;;;;;;51.25;41.00;;;;;18.85;98.68;101107.59;5108294;27;45331;-81
2021/11/12 16:15:24;;;;;;;;;50.00;39.25;;;;;18.51;100.00;101131.34;5120650;27;45506;-83
2021/11/12 16:25:19;;;;;;;;;60.75;42.00;;;;;18.27;100.00;101129.16;5123129;27;46592;-80
2021/11/12 16:27:49;;;;;;;;;48.75;37.50;;;;;18.24;100.00;101124.09;5123610;27;45423;-80
2021/11/12 16:30:19;;;;;;;;;48.25;36.50;;;;;18.11;100.00;101132.44;5120641;27;45484;-80
2021/11/12 16:32:55;;;;;;;;;49.75;39.00;;;;;18.04;100.00;101136.63;5103000;27;45451;-80
2021/11/12 16:35:24;;;;;;;;;49.75;38.00;;;;;18.18;100.00;101132.69;5114626;27;45497;-82
2021/11/12 16:37:53;;;;;;;;;45.25;38.00;;;;;18.18;100.00;101136.22;5121130;27;45439;-82
2021/11/12 16:40:28;;;;;;;;;46.00;37.75;;;;;18.24;100.00;101132.13;5101635;27;45660;-80
2021/11/12 16:43:06;;;;;;;;;39.75;34.50;;;;;18.18;100.00;101128.19;5118836;27;45483;-80
2021/11/12 16:45:54;;;;;;;;;45.00;36.25;;;;;18.19;100.00;101119.19;5117028;27;45665;-80
2021/11/12 17:04:05;;;;;;;;;36.75;29.75;;;;;18.08;100.00;101116.66;5107887;27;45409;-79